LFTW/FNI METAR and TAF weather

Enter ICAO airport designator
Station Type Date Time Source
LFTW METAR 2020/07/11 16:30 UTC NOAA

LFTW 111630Z AUTO 03015KT 350V060 CAVOK 29/09 Q1016 BECMG 35020G30KT


Station Type Date Time Source
LFTW Decoded METAR 2020/07/11 16:30 UTC NOAA

Nimes / Garons, France (LFTW) 43-45N 004-25E 96M
Jul 11, 2020 - 12:30 PM EDT / 2020.07.11 1630 UTC
Wind: from the NNE (030 degrees) at 17 MPH (15 KT) (direction variable):0
Visibility: greater than 7 mile(s):0
Temperature: 84 F (29 C)
Dew Point: 48 F (9 C)
Relative Humidity: 28%
Pressure (altimeter): 30.00 in. Hg (1016 hPa)
ob: LFTW 111630Z AUTO 03015KT 350V060 CAVOK 29/09 Q1016 BECMG 35020G30KT
cycle: 16

Station Type Date Time Source
LFTW TAF 2020/07/11 15:21 UTC NOAA

TAF LFTW 111400Z 1115/1215 35020G30KT CAVOK
BECMG 1119/1121 36015KT
BECMG 1210/1212 VRB05KT

Example: see airport list